createdAt,value
2019-05-19T00:00:18.936Z,60.33
2019-05-19T00:01:18.910Z,60.33
2019-05-19T00:02:18.899Z,60.33
2019-05-19T00:03:18.895Z,60.24
2019-05-19T00:04:18.902Z,60.24
2019-05-19T00:05:18.897Z,60.24
2019-05-19T00:06:18.882Z,60.24
2019-05-19T00:07:18.875Z,60.14
2019-05-19T00:08:18.866Z,60.24
2019-05-19T00:09:18.862Z,60.24
2019-05-19T00:10:18.869Z,60.33
2019-05-19T00:11:18.858Z,60.33
2019-05-19T00:12:18.856Z,60.24
2019-05-19T00:13:18.832Z,60.33
2019-05-19T00:14:18.826Z,60.24
2019-05-19T00:15:18.831Z,60.33
2019-05-19T00:16:18.842Z,60.14
2019-05-19T00:17:18.822Z,60.14
2019-05-19T00:18:18.806Z,60.04
2019-05-19T00:19:26.201Z,60.72
2019-05-19T00:20:18.804Z,60.72
2019-05-19T00:21:18.786Z,60.04
2019-05-19T00:22:18.781Z,60.72
2019-05-19T00:23:18.779Z,60.52
2019-05-19T00:24:18.772Z,60.42
2019-05-19T00:25:18.771Z,60.04
2019-05-19T00:26:18.756Z,60.62
2019-05-19T00:27:18.754Z,60.42
2019-05-19T00:28:18.753Z,60.62
2019-05-19T00:29:18.741Z,60.81
2019-05-19T00:30:18.741Z,60.62
2019-05-19T00:31:18.731Z,60.72
2019-05-19T00:32:18.719Z,60.72
2019-05-19T00:33:18.715Z,60.81
2019-05-19T00:34:18.705Z,60.62
2019-05-19T00:35:18.715Z,60.62
2019-05-19T00:36:19.680Z,60.62
2019-05-19T00:37:18.714Z,60.62
2019-05-19T00:38:18.690Z,60.42
2019-05-19T00:39:18.685Z,60.72
2019-05-19T00:40:18.671Z,60.72
2019-05-19T00:41:18.661Z,60.72
2019-05-19T00:42:18.681Z,60.52
2019-05-19T00:43:18.655Z,60.33
2019-05-19T00:44:18.646Z,60.62
2019-05-19T00:45:18.636Z,60.52
2019-05-19T00:46:18.639Z,60.52
2019-05-19T00:47:18.626Z,60.62
2019-05-19T00:48:18.627Z,60.42
2019-05-19T00:49:18.623Z,60.72
2019-05-19T00:50:18.610Z,60.42
2019-05-19T00:51:18.602Z,60.42
2019-05-19T00:52:18.594Z,60.52
2019-05-19T00:53:18.582Z,60.52
2019-05-19T00:54:18.576Z,60.91
2019-05-19T00:55:18.575Z,60.72
2019-05-19T00:56:18.571Z,60.52
2019-05-19T00:57:18.564Z,60.52
2019-05-19T00:58:18.558Z,60.91
2019-05-19T00:59:18.546Z,60.42
2019-05-19T01:00:18.550Z,60.91
2019-05-19T01:01:18.538Z,60.52
2019-05-19T01:02:18.536Z,61.10
2019-05-19T01:03:18.531Z,60.91
2019-05-19T01:04:18.524Z,60.91
2019-05-19T01:05:20.719Z,60.91
2019-05-19T01:06:18.505Z,60.91
2019-05-19T01:07:18.496Z,60.81
2019-05-19T01:08:18.495Z,61.00
2019-05-19T01:09:18.488Z,60.91
2019-05-19T01:10:18.484Z,60.81
2019-05-19T01:11:18.475Z,60.81
2019-05-19T01:12:18.468Z,60.81
2019-05-19T01:13:18.458Z,61.19
2019-05-19T01:14:18.462Z,61.10
2019-05-19T01:15:18.451Z,60.62
2019-05-19T01:16:18.441Z,61.00
2019-05-19T01:17:18.434Z,60.91
2019-05-19T01:18:18.432Z,60.62
2019-05-19T01:19:18.428Z,60.72
2019-05-19T01:20:18.420Z,60.72
2019-05-19T01:21:18.419Z,61.00
2019-05-19T01:22:18.416Z,60.52
2019-05-19T01:23:18.400Z,60.72
2019-05-19T01:24:18.389Z,61.00
2019-05-19T01:25:18.385Z,61.10
2019-05-19T01:26:18.378Z,60.72
2019-05-19T01:27:18.371Z,60.81
2019-05-19T01:28:18.369Z,61.29
2019-05-19T01:29:18.369Z,60.62
2019-05-19T01:30:18.366Z,60.91
2019-05-19T01:31:18.349Z,61.00
2019-05-19T01:32:18.343Z,60.91
2019-05-19T01:33:18.344Z,60.81
2019-05-19T01:34:18.339Z,60.91
2019-05-19T01:35:18.329Z,60.81
2019-05-19T01:36:18.317Z,61.39
2019-05-19T01:37:18.321Z,61.49
2019-05-19T01:38:18.302Z,60.81
2019-05-19T01:39:18.295Z,61.00
2019-05-19T01:40:18.300Z,60.62
2019-05-19T01:41:18.289Z,60.62
2019-05-19T01:42:18.303Z,60.81
2019-05-19T01:43:18.277Z,60.62
2019-05-19T01:44:18.264Z,60.81
2019-05-19T01:45:18.256Z,60.81
2019-05-19T01:46:18.258Z,60.81
2019-05-19T01:47:18.250Z,60.81
2019-05-19T01:48:18.248Z,60.81
2019-05-19T01:49:18.230Z,60.81
2019-05-19T01:50:18.788Z,61.00
2019-05-19T01:51:18.225Z,60.91
2019-05-19T01:52:18.233Z,61.00
2019-05-19T01:53:18.211Z,61.00
2019-05-19T01:54:18.204Z,60.81
2019-05-19T01:55:18.202Z,60.81
2019-05-19T01:56:18.188Z,60.91
2019-05-19T01:57:18.186Z,61.00
2019-05-19T01:58:18.178Z,60.81
2019-05-19T01:59:18.168Z,61.00
2019-05-19T02:00:18.180Z,61.00
2019-05-19T02:01:18.158Z,60.52
2019-05-19T02:02:18.150Z,60.91
2019-05-19T02:03:18.148Z,61.00
2019-05-19T02:04:18.147Z,61.19
2019-05-19T02:05:18.138Z,61.19
2019-05-19T02:06:18.134Z,61.19
2019-05-19T02:07:18.125Z,61.19
2019-05-19T02:08:18.108Z,61.19
2019-05-19T02:09:18.101Z,61.19
2019-05-19T02:10:18.105Z,61.19
2019-05-19T02:11:18.089Z,61.49
2019-05-19T02:12:18.094Z,61.19
2019-05-19T02:13:18.083Z,61.16
2019-05-19T02:14:18.083Z,61.49
2019-05-19T02:15:18.077Z,61.19
2019-05-19T02:16:18.058Z,61.19
2019-05-19T02:17:18.054Z,61.49
2019-05-19T02:18:18.058Z,61.49
2019-05-19T02:19:18.045Z,61.49
2019-05-19T02:20:32.279Z,60.91
2019-05-19T02:21:18.035Z,61.39
2019-05-19T02:22:18.030Z,61.29
2019-05-19T02:23:18.016Z,61.39
2019-05-19T02:24:18.054Z,61.00
2019-05-19T02:25:18.048Z,61.00
2019-05-19T02:26:18.014Z,61.00
2019-05-19T02:27:17.994Z,61.39
2019-05-19T02:28:17.989Z,61.58
2019-05-19T02:29:17.978Z,61.39
2019-05-19T02:30:17.979Z,61.49
2019-05-19T02:31:17.965Z,61.49
2019-05-19T02:32:17.972Z,61.16
2019-05-19T02:33:17.963Z,61.29
2019-05-19T02:34:17.948Z,61.39
2019-05-19T02:35:17.939Z,61.10
2019-05-19T02:36:17.948Z,61.26
2019-05-19T02:37:17.935Z,61.16
2019-05-19T02:38:17.924Z,61.29
2019-05-19T02:39:17.920Z,61.49
2019-05-19T02:40:17.919Z,61.87
2019-05-19T02:41:17.904Z,61.68
2019-05-19T02:42:17.899Z,61.94
2019-05-19T02:43:17.899Z,61.74
2019-05-19T02:44:17.906Z,61.55
2019-05-19T02:45:17.881Z,61.36
2019-05-19T02:46:17.887Z,61.36
2019-05-19T02:47:17.874Z,61.74
2019-05-19T02:48:17.856Z,61.68
2019-05-19T02:49:17.849Z,61.65
2019-05-19T02:50:17.848Z,61.74
2019-05-19T02:51:17.848Z,61.65
2019-05-19T02:52:17.838Z,61.65
2019-05-19T02:53:17.827Z,61.46
2019-05-19T02:54:17.814Z,61.97
2019-05-19T02:55:17.813Z,61.94
2019-05-19T02:56:17.815Z,61.74
2019-05-19T02:57:17.803Z,61.65
2019-05-19T02:58:17.798Z,61.84
2019-05-19T02:59:17.789Z,61.65
2019-05-19T03:00:17.786Z,61.94
2019-05-19T03:01:17.770Z,61.74
2019-05-19T03:02:17.765Z,61.68
2019-05-19T03:03:17.755Z,61.65
2019-05-19T03:04:17.777Z,61.84
2019-05-19T03:05:17.748Z,61.74
2019-05-19T03:06:17.757Z,61.74
2019-05-19T03:07:17.730Z,61.94
2019-05-19T03:08:17.738Z,61.84
2019-05-19T03:09:17.736Z,61.84
2019-05-19T03:10:17.727Z,61.87
2019-05-19T03:11:17.719Z,61.74
2019-05-19T03:12:17.701Z,61.65
2019-05-19T03:13:17.701Z,61.84
2019-05-19T03:14:17.689Z,61.74
2019-05-19T03:15:17.687Z,61.74
2019-05-19T03:16:17.693Z,61.94
2019-05-19T03:17:17.687Z,61.84
2019-05-19T03:18:17.680Z,61.65
2019-05-19T03:19:17.677Z,62.03
2019-05-19T03:20:17.658Z,61.87
2019-05-19T03:21:17.657Z,61.84
2019-05-19T03:22:17.643Z,61.94
2019-05-19T03:23:17.638Z,61.68
2019-05-19T03:24:17.636Z,61.65
2019-05-19T03:25:17.629Z,61.87
2019-05-19T03:26:17.617Z,61.94
2019-05-19T03:27:17.613Z,62.03
2019-05-19T03:28:17.610Z,61.97
2019-05-19T03:29:17.607Z,61.84
2019-05-19T03:30:17.601Z,61.65
2019-05-19T03:31:17.592Z,61.84
2019-05-19T03:32:17.615Z,61.74
2019-05-19T03:33:17.581Z,61.74
2019-05-19T03:34:17.568Z,61.84
2019-05-19T03:35:17.558Z,61.84
2019-05-19T03:36:17.552Z,61.74
2019-05-19T03:37:17.543Z,61.74
2019-05-19T03:38:17.536Z,61.77
2019-05-19T03:39:17.530Z,61.84
2019-05-19T03:40:17.533Z,61.65
2019-05-19T03:41:17.522Z,61.84
2019-05-19T03:42:17.516Z,61.74
2019-05-19T03:43:17.507Z,61.26
2019-05-19T03:44:17.496Z,61.74
2019-05-19T03:45:17.497Z,61.84
2019-05-19T03:46:17.490Z,61.65
2019-05-19T03:47:17.482Z,61.55
2019-05-19T03:48:17.483Z,61.55
2019-05-19T03:49:17.474Z,61.65
2019-05-19T03:50:17.463Z,61.74
2019-05-19T03:51:30.198Z,61.55
2019-05-19T03:52:17.448Z,61.55
2019-05-19T03:53:17.468Z,61.74
2019-05-19T03:54:17.436Z,61.84
2019-05-19T03:55:17.439Z,61.77
2019-05-19T03:56:17.419Z,61.74
2019-05-19T03:57:17.417Z,61.74
2019-05-19T03:58:17.407Z,61.36
2019-05-19T03:59:17.417Z,61.74
2019-05-19T04:00:17.407Z,61.36
2019-05-19T04:01:17.395Z,61.65
2019-05-19T04:02:17.385Z,61.74
2019-05-19T04:03:17.382Z,61.65
2019-05-19T04:04:17.381Z,61.65
2019-05-19T04:05:17.369Z,61.55
2019-05-19T04:06:17.365Z,61.74
2019-05-19T04:07:17.349Z,61.84
2019-05-19T04:08:17.363Z,61.77
2019-05-19T04:09:17.695Z,61.94
2019-05-19T04:10:17.332Z,61.94
2019-05-19T04:11:17.327Z,61.94
2019-05-19T04:12:17.331Z,61.65
2019-05-19T04:13:17.323Z,62.06
2019-05-19T04:14:17.316Z,61.68
2019-05-19T04:15:17.308Z,61.74
2019-05-19T04:16:17.294Z,62.13
2019-05-19T04:17:17.298Z,61.74
2019-05-19T04:18:17.279Z,61.87
2019-05-19T04:19:17.275Z,61.97
2019-05-19T04:20:17.274Z,61.84
2019-05-19T04:21:17.270Z,61.74
2019-05-19T04:22:17.264Z,61.84
2019-05-19T04:23:17.273Z,61.74
2019-05-19T04:24:17.243Z,61.65
2019-05-19T04:25:17.242Z,61.94
2019-05-19T04:26:17.232Z,61.68
2019-05-19T04:27:17.228Z,62.13
2019-05-19T04:28:17.227Z,61.84
2019-05-19T04:29:17.212Z,61.84
2019-05-19T04:30:17.204Z,61.94
2019-05-19T04:31:17.211Z,61.74
2019-05-19T04:32:17.202Z,61.77
2019-05-19T04:33:17.195Z,61.87
2019-05-19T04:34:17.189Z,61.87
2019-05-19T04:35:17.179Z,61.84
2019-05-19T04:36:17.171Z,61.68
2019-05-19T04:37:17.164Z,61.77
2019-05-19T04:38:17.154Z,61.84
2019-05-19T04:39:17.151Z,61.84
2019-05-19T04:40:17.173Z,61.94
2019-05-19T04:41:17.141Z,61.65
2019-05-19T04:42:17.130Z,61.94
2019-05-19T04:43:17.128Z,62.06
2019-05-19T04:44:17.139Z,61.68
2019-05-19T04:45:17.120Z,61.65
2019-05-19T04:46:17.112Z,61.65
2019-05-19T04:47:17.104Z,61.84
2019-05-19T04:48:17.090Z,62.03
2019-05-19T04:49:17.095Z,62.03
2019-05-19T04:50:17.074Z,61.84
2019-05-19T04:51:17.079Z,62.03
2019-05-19T04:52:17.083Z,61.77
2019-05-19T04:53:17.085Z,61.65
2019-05-19T04:54:17.060Z,61.74
2019-05-19T04:55:17.054Z,61.55
2019-05-19T04:56:19.604Z,61.84
2019-05-19T04:57:17.062Z,61.94
2019-05-19T04:58:17.033Z,61.94
2019-05-19T04:59:17.034Z,61.68
2019-05-19T05:00:17.023Z,61.65
2019-05-19T05:01:17.010Z,61.74
2019-05-19T05:02:17.017Z,61.94
2019-05-19T05:03:17.001Z,62.06
2019-05-19T05:04:16.994Z,61.84
2019-05-19T05:05:16.993Z,61.77
2019-05-19T05:06:17.000Z,61.74
2019-05-19T05:07:16.985Z,61.68
2019-05-19T05:08:28.534Z,61.77
2019-05-19T05:09:16.958Z,61.84
2019-05-19T05:10:16.952Z,61.94
2019-05-19T05:11:16.944Z,61.77
2019-05-19T05:12:16.952Z,61.58
2019-05-19T05:13:16.940Z,61.58
2019-05-19T05:14:16.937Z,61.68
2019-05-19T05:15:16.971Z,61.29
2019-05-19T05:16:16.933Z,61.77
2019-05-19T05:17:16.913Z,61.29
2019-05-19T05:18:16.908Z,61.39
2019-05-19T05:19:16.902Z,61.29
2019-05-19T05:20:16.895Z,61.39
2019-05-19T05:21:16.896Z,60.81
2019-05-19T05:22:22.182Z,60.91
2019-05-19T05:23:16.876Z,61.10
2019-05-19T05:24:16.872Z,60.81
2019-05-19T05:25:16.869Z,60.91
2019-05-19T05:26:16.871Z,60.62
2019-05-19T05:27:16.849Z,60.72
2019-05-19T05:28:16.838Z,60.81
2019-05-19T05:29:16.843Z,60.81
2019-05-19T05:30:16.844Z,60.81
2019-05-19T05:31:16.830Z,61.00
2019-05-19T05:32:16.829Z,60.62
2019-05-19T05:33:16.823Z,60.81
2019-05-19T05:34:16.807Z,60.81
2019-05-19T05:35:16.798Z,61.19
2019-05-19T05:36:16.807Z,60.62
2019-05-19T05:37:16.807Z,60.62
2019-05-19T05:38:16.785Z,60.81
2019-05-19T05:39:16.788Z,60.81
2019-05-19T05:40:16.769Z,60.81
2019-05-19T05:41:16.767Z,60.62
2019-05-19T05:42:16.770Z,60.72
2019-05-19T05:43:16.758Z,60.62
2019-05-19T05:44:16.759Z,60.91
2019-05-19T05:45:16.740Z,60.91
2019-05-19T05:46:16.783Z,61.10
2019-05-19T05:47:16.728Z,60.72
2019-05-19T05:48:16.728Z,61.00
2019-05-19T05:49:16.726Z,61.00
2019-05-19T05:50:16.716Z,60.91
2019-05-19T05:51:16.707Z,60.62
2019-05-19T05:52:16.695Z,60.91
2019-05-19T05:53:16.689Z,60.91
2019-05-19T05:54:16.698Z,61.10
2019-05-19T05:55:16.679Z,61.10
2019-05-19T05:56:16.683Z,61.00
2019-05-19T05:57:16.679Z,60.91
2019-05-19T05:58:16.658Z,61.00
2019-05-19T05:59:16.658Z,60.81
2019-05-19T06:00:16.651Z,60.62
2019-05-19T06:01:16.638Z,60.81
2019-05-19T06:02:16.641Z,60.62
2019-05-19T06:03:16.640Z,61.10
2019-05-19T06:04:16.627Z,60.62
2019-05-19T06:05:16.615Z,60.81
2019-05-19T06:06:16.647Z,60.91
2019-05-19T06:07:16.610Z,60.62
2019-05-19T06:08:16.602Z,60.81
2019-05-19T06:09:16.595Z,61.00
2019-05-19T06:10:16.617Z,60.91
2019-05-19T06:11:16.598Z,60.62
2019-05-19T06:12:16.571Z,60.81
2019-05-19T06:13:16.567Z,60.81
2019-05-19T06:14:16.589Z,61.10
2019-05-19T06:15:16.554Z,60.81
2019-05-19T06:16:16.553Z,61.10
2019-05-19T06:17:16.562Z,60.62
2019-05-19T06:18:16.542Z,61.19
2019-05-19T06:19:16.539Z,60.81
2019-05-19T06:20:16.530Z,61.10
2019-05-19T06:21:16.530Z,60.81
2019-05-19T06:22:16.518Z,61.00
2019-05-19T06:23:16.514Z,61.13
2019-05-19T06:24:16.502Z,60.91
2019-05-19T06:25:16.503Z,60.62
2019-05-19T06:26:16.490Z,61.04
2019-05-19T06:27:16.483Z,61.00
2019-05-19T06:28:16.483Z,61.00
2019-05-19T06:29:16.478Z,60.72
2019-05-19T06:30:16.485Z,60.65
2019-05-19T06:31:16.483Z,60.72
2019-05-19T06:32:16.450Z,60.91
2019-05-19T06:33:16.447Z,60.81
2019-05-19T06:34:16.458Z,60.91
2019-05-19T06:35:16.440Z,60.91
2019-05-19T06:36:16.425Z,60.81
2019-05-19T06:37:16.422Z,60.91
2019-05-19T06:38:16.432Z,60.81
2019-05-19T06:39:16.413Z,60.81
2019-05-19T06:40:16.422Z,61.00
2019-05-19T06:41:16.405Z,60.81
2019-05-19T06:42:16.404Z,60.91
2019-05-19T06:43:16.397Z,60.62
2019-05-19T06:44:16.380Z,60.62
2019-05-19T06:45:16.378Z,61.00
2019-05-19T06:46:16.369Z,60.72
2019-05-19T06:47:16.364Z,60.62
2019-05-19T06:48:16.360Z,60.91
2019-05-19T06:49:16.363Z,60.81
2019-05-19T06:50:16.359Z,60.81
2019-05-19T06:51:16.366Z,60.91
2019-05-19T06:52:16.341Z,60.91
2019-05-19T06:53:16.336Z,60.91
2019-05-19T06:54:16.338Z,60.81
2019-05-19T06:55:16.328Z,60.91
2019-05-19T06:56:16.310Z,60.81
2019-05-19T06:57:16.305Z,60.91
2019-05-19T06:58:16.299Z,60.62
2019-05-19T06:59:16.294Z,60.81
2019-05-19T07:00:16.304Z,60.84
2019-05-19T07:01:16.289Z,60.62
2019-05-19T07:02:16.330Z,60.72
2019-05-19T07:03:16.273Z,60.81
2019-05-19T07:04:16.301Z,60.81
2019-05-19T07:05:16.262Z,60.62
2019-05-19T07:06:16.264Z,60.62
2019-05-19T07:07:16.270Z,61.10
2019-05-19T07:08:18.128Z,60.81
2019-05-19T07:09:16.237Z,60.91
2019-05-19T07:10:16.265Z,60.72
2019-05-19T07:11:16.236Z,61.10
2019-05-19T07:12:16.223Z,60.91
2019-05-19T07:13:16.222Z,60.62
2019-05-19T07:14:16.211Z,60.72
2019-05-19T07:15:16.226Z,60.55
2019-05-19T07:16:16.207Z,60.14
2019-05-19T07:17:16.206Z,60.07
2019-05-19T07:18:16.212Z,60.24
2019-05-19T07:19:16.180Z,60.36
2019-05-19T07:20:16.183Z,60.55
2019-05-19T07:21:16.177Z,60.07
2019-05-19T07:22:16.173Z,60.55
2019-05-19T07:23:27.306Z,60.36
2019-05-19T07:24:16.179Z,60.27
2019-05-19T07:25:16.155Z,60.27
2019-05-19T07:26:16.170Z,60.36
2019-05-19T07:27:16.140Z,59.97
2019-05-19T07:28:16.128Z,60.07
2019-05-19T07:29:16.132Z,59.97
2019-05-19T07:30:16.120Z,60.65
2019-05-19T07:31:16.112Z,60.62
2019-05-19T07:32:16.150Z,60.55
2019-05-19T07:33:16.106Z,60.36
2019-05-19T07:34:16.103Z,60.55
2019-05-19T07:35:16.100Z,60.36
2019-05-19T07:36:16.081Z,60.55
2019-05-19T07:37:16.077Z,60.17
2019-05-19T07:38:16.077Z,60.36
2019-05-19T07:39:16.074Z,60.27
2019-05-19T07:40:16.059Z,60.27
2019-05-19T07:41:16.053Z,60.17
2019-05-19T07:42:16.045Z,59.97
2019-05-19T07:43:16.067Z,60.27
2019-05-19T07:44:16.055Z,60.27
2019-05-19T07:45:16.061Z,60.36
2019-05-19T07:46:16.027Z,60.46
2019-05-19T07:47:16.087Z,60.17
2019-05-19T07:48:16.030Z,60.27
2019-05-19T07:49:16.017Z,60.27
2019-05-19T07:50:16.011Z,60.36
2019-05-19T07:51:16.034Z,60.36
2019-05-19T07:52:15.997Z,60.17
2019-05-19T07:53:15.998Z,60.27
2019-05-19T07:54:15.982Z,60.17
2019-05-19T07:55:15.980Z,60.46
2019-05-19T07:56:15.975Z,60.17
2019-05-19T07:57:15.964Z,60.17
2019-05-19T07:58:15.987Z,60.36
2019-05-19T07:59:15.951Z,60.55
2019-05-19T08:00:15.954Z,60.17
2019-05-19T08:01:16.103Z,60.27
2019-05-19T08:02:15.947Z,60.27
2019-05-19T08:03:15.939Z,60.36
2019-05-19T08:04:15.926Z,60.46
2019-05-19T08:05:15.942Z,60.17
2019-05-19T08:06:15.930Z,60.55
2019-05-19T08:07:15.907Z,60.55
2019-05-19T08:08:15.912Z,60.07
2019-05-19T08:09:15.903Z,60.65
2019-05-19T08:10:15.893Z,60.27
2019-05-19T08:11:15.893Z,60.07
2019-05-19T08:12:15.932Z,60.84
2019-05-19T08:13:15.876Z,60.75
2019-05-19T08:14:15.875Z,60.65
2019-05-19T08:15:15.869Z,60.75
2019-05-19T08:16:15.857Z,60.75
2019-05-19T08:17:15.849Z,60.84
2019-05-19T08:18:15.851Z,60.65
2019-05-19T08:19:15.851Z,60.65
2019-05-19T08:20:15.842Z,60.65
2019-05-19T08:21:15.847Z,60.07
2019-05-19T08:22:15.829Z,60.27
2019-05-19T08:23:15.829Z,60.36
2019-05-19T08:24:15.809Z,60.46
2019-05-19T08:25:15.804Z,60.36
2019-05-19T08:26:15.804Z,60.55
2019-05-19T08:27:15.819Z,60.55
2019-05-19T08:28:15.805Z,60.65
2019-05-19T08:29:15.785Z,60.46
2019-05-19T08:30:15.793Z,60.36
2019-05-19T08:31:15.773Z,60.46
2019-05-19T08:32:15.786Z,60.55
2019-05-19T08:33:15.781Z,60.55
2019-05-19T08:34:15.821Z,60.46
2019-05-19T08:35:15.761Z,60.36
2019-05-19T08:36:15.762Z,60.46
2019-05-19T08:37:15.742Z,60.36
2019-05-19T08:38:15.738Z,60.36
2019-05-19T08:39:15.739Z,60.65
2019-05-19T08:40:15.729Z,60.36
2019-05-19T08:41:15.729Z,60.17
2019-05-19T08:42:15.724Z,60.27
2019-05-19T08:43:15.717Z,60.55
2019-05-19T08:44:15.709Z,60.55
2019-05-19T08:45:15.704Z,60.55
2019-05-19T08:46:15.699Z,60.27
2019-05-19T08:47:15.691Z,60.36
2019-05-19T08:48:15.679Z,60.07
2019-05-19T08:49:15.674Z,60.36
2019-05-19T08:50:15.679Z,60.36
2019-05-19T08:51:15.676Z,60.36
2019-05-19T08:52:15.666Z,60.46
2019-05-19T08:53:15.660Z,60.55
2019-05-19T08:54:18.812Z,60.07
2019-05-19T08:55:15.648Z,60.46
2019-05-19T08:56:15.639Z,60.65
2019-05-19T08:57:15.632Z,60.27
2019-05-19T08:58:15.633Z,60.65
2019-05-19T08:59:15.630Z,60.27
2019-05-19T09:00:15.639Z,60.07
2019-05-19T09:01:15.621Z,59.97
2019-05-19T09:02:15.612Z,60.07
2019-05-19T09:03:15.603Z,59.97
2019-05-19T09:04:15.607Z,60.07
2019-05-19T09:05:15.593Z,60.27
2019-05-19T09:06:15.592Z,60.17
2019-05-19T09:07:15.582Z,60.07
2019-05-19T09:08:15.582Z,59.88
2019-05-19T09:09:15.569Z,59.88
2019-05-19T09:10:15.561Z,60.07
2019-05-19T09:11:15.574Z,60.36
2019-05-19T09:12:15.557Z,59.88
2019-05-19T09:13:15.563Z,59.78
2019-05-19T09:14:15.546Z,60.07
2019-05-19T09:15:15.543Z,60.17
2019-05-19T09:16:15.545Z,60.07
2019-05-19T09:17:15.543Z,59.88
2019-05-19T09:18:15.557Z,59.88
2019-05-19T09:19:15.526Z,59.97
2019-05-19T09:20:15.519Z,59.97
2019-05-19T09:21:15.514Z,59.88
2019-05-19T09:22:15.495Z,60.36
2019-05-19T09:23:15.489Z,59.88
2019-05-19T09:24:29.625Z,60.17
2019-05-19T09:25:15.491Z,60.17
2019-05-19T09:26:15.482Z,59.88
2019-05-19T09:27:15.478Z,59.88
2019-05-19T09:28:15.472Z,60.17
2019-05-19T09:29:15.476Z,59.88
2019-05-19T09:30:15.467Z,59.88
2019-05-19T09:31:15.458Z,59.78
2019-05-19T09:32:15.452Z,60.07
2019-05-19T09:33:15.447Z,59.78
2019-05-19T09:34:15.436Z,59.78
2019-05-19T09:35:15.430Z,59.78
2019-05-19T09:36:15.435Z,59.69
2019-05-19T09:37:15.469Z,59.59
2019-05-19T09:38:15.423Z,59.97
2019-05-19T09:39:15.466Z,59.78
2019-05-19T09:40:15.416Z,59.59
2019-05-19T09:41:15.405Z,59.69
2019-05-19T09:42:15.395Z,59.88
2019-05-19T09:43:15.465Z,59.97
2019-05-19T09:44:15.387Z,59.81
2019-05-19T09:45:15.426Z,59.72
2019-05-19T09:46:15.378Z,60.10
2019-05-19T09:47:15.367Z,59.81
2019-05-19T09:48:15.472Z,59.62
2019-05-19T09:49:15.370Z,60.20
2019-05-19T09:50:15.367Z,60.07
2019-05-19T09:51:15.358Z,60.00
2019-05-19T09:52:17.189Z,60.10
2019-05-19T09:53:15.373Z,59.88
2019-05-19T09:54:15.336Z,60.10
2019-05-19T09:55:15.327Z,60.00
2019-05-19T09:56:15.326Z,60.30
2019-05-19T09:57:15.325Z,60.30
2019-05-19T09:58:19.734Z,60.58
2019-05-19T09:59:15.380Z,60.68
2019-05-19T10:00:15.301Z,60.58
2019-05-19T10:01:15.295Z,60.20
2019-05-19T10:02:15.298Z,60.58
2019-05-19T10:03:15.291Z,60.49
2019-05-19T10:04:15.308Z,60.58
2019-05-19T10:05:15.315Z,60.58
2019-05-19T10:06:15.282Z,60.39
2019-05-19T10:07:15.318Z,60.30
2019-05-19T10:08:15.275Z,60.39
2019-05-19T10:09:15.262Z,60.20
2019-05-19T10:10:15.256Z,60.20
2019-05-19T10:11:15.256Z,60.20
2019-05-19T10:12:15.246Z,60.30
2019-05-19T10:13:15.236Z,60.58
2019-05-19T10:14:15.241Z,60.10
2019-05-19T10:15:15.236Z,60.30
2019-05-19T10:16:15.233Z,60.49
2019-05-19T10:17:15.232Z,60.58
2019-05-19T10:18:15.237Z,60.39
2019-05-19T10:19:15.209Z,60.58
2019-05-19T10:20:15.209Z,60.49
2019-05-19T10:21:15.202Z,60.20
2019-05-19T10:22:15.205Z,60.39
2019-05-19T10:23:15.195Z,60.68
2019-05-19T10:24:15.186Z,60.49
2019-05-19T10:25:22.942Z,60.58
2019-05-19T10:26:15.168Z,60.39
2019-05-19T10:27:15.164Z,60.39
2019-05-19T10:28:15.189Z,60.49
2019-05-19T10:29:15.164Z,60.00
2019-05-19T10:30:15.154Z,60.58
2019-05-19T10:31:15.201Z,60.39
2019-05-19T10:32:15.141Z,60.68
2019-05-19T10:33:15.156Z,60.49
2019-05-19T10:34:15.136Z,60.49
2019-05-19T10:35:15.134Z,60.49
2019-05-19T10:36:15.123Z,60.39
2019-05-19T10:37:15.117Z,60.58
2019-05-19T10:38:17.753Z,60.68
2019-05-19T10:39:15.114Z,60.20
2019-05-19T10:40:15.185Z,60.49
2019-05-19T10:41:15.109Z,60.49
2019-05-19T10:42:15.117Z,60.30
2019-05-19T10:43:15.094Z,60.39
2019-05-19T10:44:15.118Z,60.00
2019-05-19T10:45:15.099Z,60.00
2019-05-19T10:46:15.146Z,60.10
2019-05-19T10:47:15.137Z,60.20
2019-05-19T10:48:15.103Z,60.30
2019-05-19T10:49:15.090Z,60.39
2019-05-19T10:50:15.094Z,60.20
2019-05-19T10:51:15.052Z,60.20
2019-05-19T10:52:15.049Z,60.10
2019-05-19T10:53:15.051Z,60.10
2019-05-19T10:54:15.045Z,60.20
2019-05-19T10:55:15.032Z,60.00
2019-05-19T10:56:15.031Z,60.10
2019-05-19T10:57:15.073Z,60.20
2019-05-19T10:58:15.055Z,59.81
2019-05-19T10:59:15.010Z,59.72
2019-05-19T11:00:15.059Z,60.10
2019-05-19T11:01:15.006Z,60.13
2019-05-19T11:02:15.002Z,59.65
2019-05-19T11:03:14.999Z,59.84
2019-05-19T11:04:14.987Z,59.75
2019-05-19T11:05:15.134Z,59.55
2019-05-19T11:06:14.999Z,59.45
2019-05-19T11:07:15.186Z,59.36
2019-05-19T11:08:14.987Z,59.36
2019-05-19T11:09:14.984Z,59.17
2019-05-19T11:10:15.012Z,59.36
2019-05-19T11:11:15.016Z,59.07
2019-05-19T11:12:15.044Z,59.07
2019-05-19T11:13:15.005Z,59.27
2019-05-19T11:14:14.944Z,59.45
2019-05-19T11:15:14.941Z,59.55
2019-05-19T11:16:15.001Z,59.07
2019-05-19T11:17:14.928Z,59.27
2019-05-19T11:18:14.938Z,59.36
2019-05-19T11:19:14.920Z,59.27
2019-05-19T11:20:14.930Z,59.07
2019-05-19T11:21:14.917Z,59.17
2019-05-19T11:22:14.905Z,59.07
2019-05-19T11:23:14.913Z,59.07
2019-05-19T11:24:14.901Z,59.27
2019-05-19T11:25:14.902Z,59.07
2019-05-19T11:26:14.893Z,59.07
2019-05-19T11:27:14.893Z,59.17
2019-05-19T11:28:15.273Z,59.07
2019-05-19T11:29:14.880Z,59.45
2019-05-19T11:30:14.871Z,59.36
2019-05-19T11:31:14.861Z,58.97
2019-05-19T11:32:14.886Z,59.36
2019-05-19T11:33:14.934Z,58.59
2019-05-19T11:34:14.880Z,59.17
2019-05-19T11:35:14.851Z,59.07
2019-05-19T11:36:14.850Z,58.69
2019-05-19T11:37:14.836Z,59.07
2019-05-19T11:38:14.846Z,58.88
2019-05-19T11:39:14.836Z,58.78
2019-05-19T11:40:14.829Z,58.69
2019-05-19T11:41:14.959Z,59.45
2019-05-19T11:42:14.821Z,59.27
2019-05-19T11:43:14.819Z,59.45
2019-05-19T11:44:14.818Z,59.45
2019-05-19T11:45:14.851Z,59.07
2019-05-19T11:46:14.837Z,59.55
2019-05-19T11:47:14.803Z,58.88
2019-05-19T11:48:14.813Z,59.27
2019-05-19T11:49:14.858Z,59.17
2019-05-19T11:50:14.789Z,59.07
2019-05-19T11:51:14.832Z,58.88
2019-05-19T11:52:14.822Z,59.27
2019-05-19T11:53:14.796Z,59.17
2019-05-19T11:54:14.774Z,59.45
2019-05-19T11:55:14.792Z,59.27
2019-05-19T11:56:14.764Z,59.36
2019-05-19T11:57:14.758Z,59.27
2019-05-19T11:58:14.757Z,59.36
2019-05-19T11:59:14.750Z,59.45
2019-05-19T12:00:14.746Z,59.45
2019-05-19T12:01:14.744Z,59.45
2019-05-19T12:02:14.733Z,59.17
2019-05-19T12:03:14.724Z,58.69
2019-05-19T12:04:14.727Z,59.07
2019-05-19T12:05:14.727Z,58.59
2019-05-19T12:06:14.716Z,58.69
2019-05-19T12:07:14.718Z,58.88
2019-05-19T12:08:14.703Z,58.97
2019-05-19T12:09:14.705Z,58.69
2019-05-19T12:10:14.705Z,58.69
2019-05-19T12:11:14.724Z,58.69
2019-05-19T12:12:14.689Z,58.78
2019-05-19T12:13:14.687Z,59.07
2019-05-19T12:14:14.687Z,58.97
2019-05-19T12:15:14.675Z,58.97
2019-05-19T12:16:14.675Z,58.78
2019-05-19T12:17:14.673Z,58.59
2019-05-19T12:18:14.667Z,58.88
2019-05-19T12:19:14.670Z,59.07
2019-05-19T12:20:14.655Z,58.88
2019-05-19T12:21:14.651Z,58.49
2019-05-19T12:22:14.648Z,58.49
2019-05-19T12:23:14.656Z,58.59
2019-05-19T12:24:14.649Z,58.49
2019-05-19T12:25:14.644Z,58.30
2019-05-19T12:26:23.235Z,58.11
2019-05-19T12:27:14.631Z,58.01
2019-05-19T12:28:14.694Z,58.30
2019-05-19T12:29:14.629Z,58.59
2019-05-19T12:30:14.622Z,58.49
2019-05-19T12:31:14.630Z,58.40
2019-05-19T12:32:14.606Z,58.01
2019-05-19T12:33:14.662Z,58.40
2019-05-19T12:34:14.596Z,58.69
2019-05-19T12:35:14.597Z,58.49
2019-05-19T12:36:14.602Z,58.40
2019-05-19T12:37:14.592Z,58.40
2019-05-19T12:38:14.617Z,58.49
2019-05-19T12:39:14.601Z,58.59
2019-05-19T12:40:14.575Z,58.59
2019-05-19T12:41:14.572Z,58.40
2019-05-19T12:42:14.582Z,58.20
2019-05-19T12:43:14.568Z,58.69
2019-05-19T12:44:14.563Z,58.49
2019-05-19T12:45:14.556Z,58.49
2019-05-19T12:46:16.669Z,58.49
2019-05-19T12:47:14.548Z,58.30
2019-05-19T12:48:14.555Z,58.49
2019-05-19T12:49:14.542Z,58.40
2019-05-19T12:50:14.537Z,58.52
2019-05-19T12:51:14.542Z,58.59
2019-05-19T12:52:14.531Z,58.40